Terminal Aerodrome Forecast
Issued by NWS Charleston, WV

Home | Current Version | Previous Version | Text Only | Print | Product List | Glossary On
Versions: 1 2 3 4 5 6 7 8 9 10 11 12 13 14 15 16 17 18 19 20 21 22 23 24 25
770
FTUS41 KRLX 221501 AAB
TAFEKN
TAF AMD
KEKN 221501Z 2215/2312 29005KT P6SM BKN017 OVC045
     FM221700 27007G13KT P6SM BKN040
     FM222000 29008G12KT P6SM SCT110
     FM230100 34003KT P6SM SCT150
     FM230400 00000KT 3SM BR SCT150
     FM230500 00000KT 1SM BR SCT100=

USA.gov is the U.S. government's official web portal to all federal, state and local government web resources and services.